Time;durP1;ratioP1;P1;durP2;ratioP2;P2;SDS_P1;SDS_P2;PMS_P1;PMS_P2;Temp;Humidity;BMP_temperature;BMP_pressure;BME280_temperature;BME280_humidity;BME280_pressure;Samples;Min_cycle;Max_cycle;Signal;HPM_P1;HPM_P2
2022/03/06 00:01:49;;;;;;;27.38;14.70;;;;;;;0.14;100.00;102488.81;2603469;54;20085;31
2022/03/06 00:04:25;;;;;;;26.70;13.70;;;;;;;0.04;100.00;102489.91;2604030;47;20025;31
2022/03/06 00:12:10;;;;;;;24.23;12.88;;;;;;;-0.03;100.00;102491.78;2603597;54;20077;31
2022/03/06 00:17:24;;;;;;;30.13;14.20;;;;;;;-0.06;100.00;102497.13;2603331;54;20075;31
2022/03/06 00:20:02;;;;;;;25.65;13.80;;;;;;;-0.06;100.00;102495.38;2604218;54;20026;31
2022/03/06 00:45:53;;;;;;;;;;;;;;;-0.04;100.00;102495.34;2603376;54;20433;31
2022/03/06 00:51:19;;;;;;;21.88;12.88;;;;;;;-0.02;100.00;102491.75;2603764;54;20453;31
2022/03/06 00:59:07;;;;;;;22.17;12.38;;;;;;;-0.12;100.00;102513.13;2603358;54;21237;31
2022/03/06 01:01:43;;;;;;;21.08;12.35;;;;;;;-0.08;100.00;102515.69;2603712;47;20045;31
2022/03/06 01:09:35;;;;;;;21.20;13.00;;;;;;;-0.10;100.00;102522.78;2602653;54;20463;31
2022/03/06 01:14:47;;;;;;;23.30;12.77;;;;;;;-0.15;100.00;102519.31;2701662;39;20462;31
2022/03/06 01:17:22;;;;;;;23.27;12.20;;;;;;;-0.04;100.00;102529.75;2702425;39;20840;31
2022/03/06 01:27:49;;;;;;;23.73;12.38;;;;;;;-0.21;100.00;102536.22;2701382;39;20482;31
2022/03/06 01:30:25;;;;;;;22.90;13.20;;;;;;;-0.25;100.00;102536.25;2603102;47;20034;31
2022/03/06 01:33:02;;;;;;;21.20;13.15;;;;;;;-0.23;100.00;102534.47;2603899;47;21353;31
2022/03/06 01:43:27;;;;;;;22.80;14.13;;;;;;;-0.51;100.00;102537.56;2602893;54;20501;31
2022/03/06 01:46:04;;;;;;;22.30;12.07;;;;;;;-0.60;100.00;102545.63;2603370;47;20050;31
2022/03/06 01:51:13;;;;;;;27.50;14.43;;;;;;;-0.36;100.00;102550.53;2701650;39;21001;31
2022/03/06 01:56:36;;;;;;;26.27;14.70;;;;;;;-0.33;100.00;102556.69;2603116;54;20058;31
2022/03/06 01:59:15;;;;;;;23.92;13.55;;;;;;;-0.38;100.00;102555.00;2603441;47;19938;31
2022/03/06 02:04:33;;;;;;;26.07;15.33;;;;;;;-0.51;100.00;102561.34;2603047;54;20497;31
2022/03/06 02:07:09;;;;;;;26.20;16.20;;;;;;;-0.52;100.00;102561.38;2603707;47;20048;31
2022/03/06 02:12:26;;;;;;;26.47;15.10;;;;;;;-0.57;100.00;102559.69;2701217;39;20465;31
2022/03/06 02:17:38;;;;;;;27.60;15.43;;;;;;;-0.65;100.00;102563.31;2603043;54;20339;31
2022/03/06 02:20:15;;;;;;;27.95;16.05;;;;;;;-0.62;100.00;102550.06;2701774;39;20264;31
2022/03/06 02:22:54;;;;;;;27.75;15.95;;;;;;;-0.64;100.00;102552.72;2603547;47;20026;31
2022/03/06 02:30:43;;;;;;;27.85;16.85;;;;;;;-0.67;100.00;102551.91;2603148;54;21525;31
2022/03/06 02:33:19;;;;;;;29.10;16.55;;;;;;;-0.66;100.00;102548.34;2602957;47;20818;31
2022/03/06 02:35:55;;;;;;;28.17;16.60;;;;;;;-0.71;100.00;102546.66;2603202;54;20030;31
2022/03/06 02:38:34;;;;;;;32.08;17.08;;;;;;;-0.74;100.00;102554.66;2702112;39;20308;31
2022/03/06 02:46:23;;;;;;;28.27;16.90;;;;;;;-0.84;100.00;102553.03;2602905;54;21290;31
2022/03/06 02:51:33;;;;;;;35.97;18.58;;;;;;;-0.97;100.00;102548.75;2603457;54;20614;31
2022/03/06 02:54:11;;;;;;;28.63;18.13;;;;;;;-1.00;100.00;102547.06;2604377;47;20030;31
2022/03/06 03:02:01;;;;;;;31.45;17.55;;;;;;;-1.00;100.00;102548.81;2701789;39;20798;31
2022/03/06 03:04:40;;;;;;;32.55;20.05;;;;;;;-1.00;100.00;102548.81;2622808;36;20030;31
2022/03/06 03:12:32;;;;;;;30.90;18.40;;;;;;;-1.15;100.00;102550.78;2702056;39;20376;31
2022/03/06 03:15:10;;;;;;;29.63;18.65;;;;;;;-1.14;100.00;102546.34;2603911;54;20022;31
2022/03/06 03:20:20;;;;;;;32.63;19.15;;;;;;;-1.18;100.00;102534.94;2603878;54;21322;31
2022/03/06 03:22:56;;;;;;;36.40;20.17;;;;;;;-1.26;100.00;102550.03;2602879;46;20415;31
2022/03/06 03:25:32;;;;;;;35.10;19.95;;;;;;;-1.32;100.00;102547.47;2603016;54;20677;31
2022/03/06 03:33:17;;;;;;;35.27;20.30;;;;;;;-1.26;100.00;102550.03;2602947;54;20872;31
2022/03/06 03:35:54;;;;;;;33.83;20.75;;;;;;;-1.30;100.00;102550.94;2603237;47;21042;31
2022/03/06 03:41:11;;;;;;;37.10;20.50;;;;;;;-1.37;100.00;102549.25;2602386;54;20035;31
2022/03/06 03:43:47;;;;;;;35.10;20.25;;;;;;;-1.47;100.00;102559.06;2603358;47;20035;31
2022/03/06 03:49:06;;;;;;;34.83;19.95;;;;;;;-1.51;100.00;102557.34;2602565;54;20486;31
2022/03/06 03:51:41;;;;;;;32.25;19.52;;;;;;;-1.56;100.00;102549.50;2613591;39;20967;31
2022/03/06 03:56:50;;;;;;;34.90;20.20;;;;;;;-1.63;100.00;102559.22;2602609;54;20446;31
2022/03/06 03:59:28;;;;;;;40.07;20.90;;;;;;;-1.53;100.00;102553.84;2603015;47;20064;31
2022/03/06 04:07:19;;;;;;;39.70;21.75;;;;;;;-1.54;100.00;102565.31;2603838;54;19958;31
2022/03/06 04:09:55;;;;;;;36.33;22.17;;;;;;;-1.56;100.00;102569.72;2603289;39;20934;31
2022/03/06 04:12:31;;;;;;;36.60;22.10;;;;;;;-1.57;100.00;102562.72;2602522;54;20521;31
2022/03/06 04:15:08;;;;;;;34.33;20.98;;;;;;;-1.61;100.00;102567.13;2602842;47;20130;31
2022/03/06 04:20:25;;;;;;;37.30;22.10;;;;;;;-1.54;100.00;102568.81;2601966;54;20333;31
2022/03/06 04:23:03;;;;;;;36.20;22.05;;;;;;;-1.50;100.00;102570.53;2602167;47;20329;31
2022/03/06 04:25:40;;;;;;;40.67;22.83;;;;;;;-1.57;100.00;102568.84;2609111;39;20639;31
2022/03/06 04:28:15;;;;;;;40.97;22.35;;;;;;;-1.55;100.00;102574.97;2602375;47;21399;31
2022/03/06 04:30:51;;;;;;;38.10;21.90;;;;;;;-1.52;100.00;102576.72;2602548;46;20396;31
2022/03/06 04:41:18;;;;;;;37.45;22.90;;;;;;;-1.38;100.00;102584.47;2601789;54;20046;31
2022/03/06 04:43:54;;;;;;;35.15;22.02;;;;;;;-1.37;100.00;102595.06;2602122;46;21076;31
2022/03/06 04:49:09;;;;;;;;;;;;;;;-1.28;100.00;102601.97;2601818;54;20042;31
2022/03/06 04:51:46;;;;;;;38.35;24.35;;;;;;;-1.27;100.00;102603.75;2602236;47;20022;31
2022/03/06 05:02:10;;;;;;;36.75;21.63;;;;;;;-1.25;100.00;102616.06;2601216;54;20474;31
2022/03/06 05:04:46;;;;;;;37.40;22.50;;;;;;;-1.25;100.00;102615.19;2601767;47;20054;31
2022/03/06 05:07:23;;;;;;;36.85;21.92;;;;;;;-1.19;100.00;102612.47;2602205;47;21280;31
2022/03/06 05:10:07;;;;;;;35.20;21.17;;;;;;;-1.06;100.00;102615.81;2601994;47;20442;31
2022/03/06 05:12:44;;;;;;;35.38;20.90;;;;;;;-1.14;100.00;102621.19;2620532;36;20466;31
2022/03/06 05:26:17;;;;;;;37.08;21.52;;;;;;;-1.01;100.00;102637.81;2600628;54;20482;31
2022/03/06 05:28:53;;;;;;;35.35;22.10;;;;;;;-1.01;100.00;102627.22;2601469;46;21374;31
2022/03/06 05:39:12;;;;;;;32.13;19.30;;;;;;;-0.99;100.00;102643.94;2601214;54;20046;31
2022/03/06 05:44:26;;;;;;;31.98;19.20;;;;;;;-1.11;100.00;102646.72;2607587;39;20373;31
2022/03/06 05:47:02;;;;;;;32.00;19.52;;;;;;;-1.01;100.00;102650.16;2601388;47;20046;31
2022/03/06 05:57:26;;;;;;;33.33;19.98;;;;;;;-1.01;100.00;102663.38;2600376;54;20039;31
2022/03/06 06:00:08;;;;;;;30.10;18.67;;;;;;;-1.05;100.00;102657.22;2601530;47;20090;31
2022/03/06 06:10:30;;;;;;;25.80;17.92;;;;;;;-1.11;100.00;102668.72;2601574;39;20176;31
2022/03/06 06:15:43;;;;;;;29.55;19.60;;;;;;;-1.11;100.00;102673.16;2606522;39;20220;31
2022/03/06 06:18:21;;;;;;;29.65;20.13;;;;;;;-1.18;100.00;102682.91;2600689;47;20771;31
2022/03/06 06:31:14;;;;;;;30.75;19.73;;;;;;;-1.24;100.00;102694.44;2601730;54;21170;31
2022/03/06 06:36:24;;;;;;;28.85;18.75;;;;;;;-1.21;100.00;102711.13;2601740;54;20030;31
2022/03/06 06:38:59;;;;;;;30.53;19.87;;;;;;;-1.21;100.00;102712.00;2601516;54;21015;31
2022/03/06 06:41:35;;;;;;;30.73;20.15;;;;;;;-1.21;100.00;102719.91;2601633;46;20699;31
2022/03/06 06:44:11;;;;;;;28.25;18.50;;;;;;;-1.11;100.00;102726.00;2602023;47;21395;31
2022/03/06 06:46:49;;;;;;;30.35;19.48;;;;;;;-1.07;100.00;102723.31;2601938;39;21016;31
2022/03/06 06:49:32;;;;;;;26.95;17.90;;;;;;;-0.98;100.00;102721.47;2601265;54;20402;31
2022/03/06 06:52:11;;;;;;;24.95;17.80;;;;;;;-0.85;100.00;102731.03;2605028;39;20290;31
2022/03/06 06:59:54;;;;;;;27.50;17.60;;;;;;;-0.80;100.00;102750.34;2602210;54;20034;31
2022/03/06 07:02:33;;;;;;;25.60;17.85;;;;;;;-0.73;100.00;102748.53;2604842;31;20399;31
2022/03/06 07:05:10;;;;;;;25.40;17.33;;;;;;;-0.68;100.00;102751.97;2603228;39;21493;31
2022/03/06 07:10:19;;;;;;;23.75;16.45;;;;;;;-0.57;100.00;102754.53;2601551;54;20547;31
2022/03/06 07:18:09;;;;;;;22.00;15.57;;;;;;;-0.48;100.00;102762.34;2602117;54;20038;31
2022/03/06 07:20:48;;;;;;;21.10;12.70;;;;;;;-0.39;100.00;102761.38;2602635;47;20045;31
2022/03/06 07:28:38;;;;;;;17.80;12.03;;;;;;;-0.19;100.00;102774.34;2653302;36;21610;31
2022/03/06 07:31:15;;;;;;;18.20;12.15;;;;;;;-0.06;100.00;102772.41;2602553;47;20041;31
2022/03/06 07:39:07;;;;;;;14.00;11.00;;;;;;;0.09;100.00;102777.50;2607821;39;20216;31
2022/03/06 07:41:43;;;;;;;17.63;11.27;;;;;;;0.09;100.00;102787.19;2602389;46;20072;31
2022/03/06 07:49:26;;;;;;;15.60;10.07;;;;;;;0.23;100.00;102784.38;2602629;54;20030;31
2022/03/06 07:52:02;;;;;;;12.65;9.25;;;;;;;0.33;100.00;102786.00;2602908;46;20045;31
2022/03/06 07:59:55;;;;;;;11.88;8.68;;;;;;;0.37;100.00;102794.75;2608657;39;20356;31
2022/03/06 08:05:04;;;;;;;11.90;7.38;;;;;;;0.28;100.00;102804.59;2602774;54;20484;31
2022/03/06 08:12:49;;;;;;;11.57;7.40;;;;;;;0.39;100.00;102807.09;2602651;39;20833;31
2022/03/06 08:18:23;;;;;;;9.13;6.80;;;;;;;0.59;100.00;102803.25;2602640;54;20034;31
2022/03/06 08:20:58;;;;;;;12.75;8.13;;;;;;;0.60;100.00;102805.03;2613924;39;20827;31
2022/03/06 08:23:34;;;;;;;12.40;7.00;;;;;;;0.56;100.00;102811.25;2602559;47;20249;31
2022/03/06 08:26:10;;;;;;;12.67;7.37;;;;;;;0.64;100.00;102809.38;2602650;47;20431;31
2022/03/06 08:28:46;;;;;;;10.88;7.07;;;;;;;0.69;100.00;102816.38;2603233;46;20046;31
2022/03/06 08:36:38;;;;;;;11.20;7.13;;;;;;;0.97;100.00;102815.91;2610534;39;20354;31
2022/03/06 08:41:47;;;;;;;8.65;6.90;;;;;;;1.19;100.00;102821.72;2602720;54;20094;31
2022/03/06 08:49:32;;;;;;;7.33;6.00;;;;;;;1.32;100.00;102819.69;2602584;54;20026;31
2022/03/06 08:54:43;;;;;;;9.10;6.50;;;;;;;1.56;100.00;102822.81;2608709;39;20346;31
2022/03/06 08:57:20;;;;;;;11.30;6.07;;;;;;;1.66;100.00;102819.06;2602859;47;20326;31
2022/03/06 09:00:00;;;;;;;10.65;6.30;;;;;;;1.77;100.00;102815.31;2609506;39;20286;31
2022/03/06 09:05:15;;;;;;;9.60;5.53;;;;;;;1.80;100.00;102818.81;2613863;39;20401;31
2022/03/06 09:07:52;;;;;;;8.40;5.63;;;;;;;1.92;100.00;102823.00;2609936;39;20352;31
2022/03/06 09:10:30;;;;;;;9.32;5.97;;;;;;;2.03;100.00;102826.31;2613503;39;20519;31
2022/03/06 09:57:09;;;;;;;6.68;5.00;;;;;;;3.06;100.00;102792.88;2601839;54;20539;31
2022/03/06 09:59:52;;;;;;;9.13;5.20;;;;;;;2.94;100.00;102796.75;2602652;47;20349;31
2022/03/06 10:02:27;;;;;;;8.25;5.50;;;;;;;3.02;100.00;102797.44;2625819;39;20985;31
2022/03/06 10:10:15;;;;;;;8.15;4.70;;;;;;;3.29;100.00;102800.28;2603444;54;21698;31
2022/03/06 10:18:05;;;;;;;11.90;4.70;;;;;;;3.54;100.00;102804.94;2603257;54;20342;31
2022/03/06 10:20:41;;;;;;;6.80;4.97;;;;;;;3.48;100.00;102811.31;2622295;36;20085;31
2022/03/06 10:26:05;;;;;;;7.38;5.28;;;;;;;3.48;100.00;102814.81;2603382;54;20038;31
2022/03/06 10:28:45;;;;;;;7.40;4.80;;;;;;;3.65;100.00;102801.06;2627972;36;20461;31
2022/03/06 10:31:23;;;;;;;9.48;5.22;;;;;;;3.72;100.00;102807.06;2604129;47;20454;31
2022/03/06 10:34:08;;;;;;;7.05;5.18;;;;;;;3.80;100.00;102801.53;2604115;47;20224;31
2022/03/06 10:39:25;;;;;;;8.25;5.18;;;;;;;3.94;100.00;102809.13;2603852;54;21577;31
2022/03/06 10:44:45;;;;;;;7.50;5.40;;;;;;;4.00;100.00;102809.78;2603864;54;20522;31
2022/03/06 10:50:07;;;;;;;6.68;5.05;;;;;;;4.08;100.00;102817.59;2603786;54;20014;31
2022/03/06 10:52:43;;;;;;;7.10;5.20;;;;;;;4.25;100.00;102818.88;2626268;36;21585;31
2022/03/06 11:05:46;;;;;;;8.02;4.75;;;;;;;4.52;100.00;102825.13;2602098;54;20026;31
2022/03/06 11:08:24;;;;;;;7.95;5.25;;;;;;;4.49;100.00;102818.09;2603368;54;20030;31
2022/03/06 11:16:11;;;;;;;;;;;;;;;4.60;100.00;102814.22;2602658;54;21108;31
2022/03/06 11:18:48;;;;;;;5.40;4.30;;;;;;;4.62;100.00;102818.56;2606100;39;20200;31
2022/03/06 11:26:53;;;;;;;6.70;4.85;;;;;;;4.78;100.00;102813.63;2602774;54;20556;31
2022/03/06 11:29:50;;;;;;;7.90;5.53;;;;;;;4.65;100.00;102812.28;2606213;39;20256;31
2022/03/06 11:32:30;;;;;;;8.27;5.50;;;;;;;4.71;100.00;102810.28;2603137;54;20019;31
2022/03/06 11:42:58;;;;;;;7.78;5.63;;;;;;;5.63;100.00;102810.72;2602855;54;21449;31
2022/03/06 11:48:10;;;;;;;8.50;5.40;;;;;;;5.43;100.00;102800.72;2602672;54;20023;31
2022/03/06 11:50:45;;;;;;;8.60;5.50;;;;;;;5.36;100.00;102797.41;2602809;47;21206;31
2022/03/06 11:53:43;;;;;;;8.20;5.20;;;;;;;5.43;100.00;102795.38;2607181;39;20846;31
2022/03/06 11:58:56;;;;;;;8.93;6.10;;;;;;;5.67;100.00;102784.72;2602721;54;20152;31
2022/03/06 12:01:35;;;;;;;7.35;5.60;;;;;;;5.47;100.00;102789.00;2606086;39;20377;31
2022/03/06 12:04:14;;;;;;;8.10;5.80;;;;;;;5.18;100.00;102788.28;2603505;46;21011;31
2022/03/06 12:12:03;;;;;;;7.38;5.70;;;;;;;5.49;100.00;102778.28;2603846;54;21896;31
2022/03/06 12:14:40;;;;;;;7.77;5.40;;;;;;;5.43;100.00;102774.03;2621002;36;20775;31
2022/03/06 12:17:27;;;;;;;6.97;5.38;;;;;;;5.37;100.00;102779.59;2602426;47;20549;31
2022/03/06 12:20:18;;;;;;;8.82;6.25;;;;;;;5.44;100.00;102784.66;2602850;47;20418;31
2022/03/06 12:22:55;;;;;;;9.80;6.60;;;;;;;5.31;100.00;102777.16;2621818;36;21184;31
2022/03/06 12:28:21;;;;;;;8.00;5.57;;;;;;;5.64;100.00;102780.41;2602285;54;20475;31
2022/03/06 12:33:32;;;;;;;5.70;4.38;;;;;;;5.54;100.00;102769.16;2608012;39;20309;31
2022/03/06 12:41:19;;;;;;;5.70;3.65;;;;;;;5.48;99.71;102768.50;2602425;54;20880;31
2022/03/06 12:44:03;;;;;;;4.97;3.93;;;;;;;5.70;100.00;102757.94;2602548;47;20037;31
2022/03/06 12:46:41;;;;;;;4.95;2.85;;;;;;;5.55;97.86;102757.56;2618359;36;21022;31
2022/03/06 12:49:16;;;;;;;5.35;3.38;;;;;;;5.46;100.00;102763.22;2602913;47;20362;31
2022/03/06 12:59:46;;;;;;;4.65;3.20;;;;;;;5.41;96.79;102736.69;2602124;54;20030;31
2022/03/06 13:02:26;;;;;;;6.07;2.78;;;;;;;5.39;99.34;102732.38;2607159;39;20283;31
2022/03/06 13:15:25;;;;;;;4.72;3.20;;;;;;;5.59;99.84;102736.94;2602315;54;20039;31
2022/03/06 13:18:07;;;;;;;3.78;2.90;;;;;;;5.52;99.84;102728.31;2603140;54;20019;31
2022/03/06 13:25:56;;;;;;;3.10;2.60;;;;;;;5.82;98.63;102725.38;2601919;54;20038;31
2022/03/06 13:33:43;;;;;;;5.00;2.72;;;;;;;5.91;100.00;102709.00;2602187;54;20037;31
2022/03/06 13:39:00;;;;;;;5.20;2.58;;;;;;;5.75;96.09;102702.50;2602291;54;20033;31
2022/03/06 13:44:10;;;;;;;6.10;2.60;;;;;;;5.66;98.97;102716.22;2602187;54;20614;31
2022/03/06 13:49:22;;;;;;;5.63;2.72;;;;;;;5.61;99.07;102703.91;2602452;54;21356;31
2022/03/06 13:54:33;;;;;;;5.90;2.70;;;;;;;5.83;99.50;102715.56;2602266;54;21060;31
2022/03/06 13:57:09;;;;;;;4.05;2.72;;;;;;;5.68;100.00;102706.34;2602474;54;20434;31
2022/03/06 13:59:45;;;;;;;6.97;3.33;;;;;;;5.69;100.00;102716.09;2602827;47;20022;31
2022/03/06 14:12:48;;;;;;;5.50;2.80;;;;;;;5.87;100.00;102694.00;2601632;54;20359;31
2022/03/06 14:20:45;;;;;;;5.10;2.70;;;;;;;5.73;100.00;102696.38;2602306;54;20116;31
2022/03/06 14:26:00;;;;;;;5.57;2.87;;;;;;;5.81;100.00;102696.91;2602824;54;20038;31
2022/03/06 14:28:41;;;;;;;5.80;2.90;;;;;;;5.74;100.00;102682.06;2701661;39;20767;31
2022/03/06 14:31:20;;;;;;;5.65;3.00;;;;;;;5.93;100.00;102684.88;2603208;47;21795;31
2022/03/06 14:34:01;;;;;;;7.65;2.80;;;;;;;5.98;100.00;102688.28;2603054;54;20090;31
2022/03/06 14:36:38;;;;;;;5.00;2.80;;;;;;;6.03;100.00;102690.75;2621935;36;20706;31
2022/03/06 14:44:29;;;;;;;9.43;2.92;;;;;;;6.01;100.00;102687.25;2701084;39;20366;31
2022/03/06 14:47:08;;;;;;;4.80;2.85;;;;;;;6.21;100.00;102681.97;2603736;47;20437;31
2022/03/06 14:49:48;;;;;;;4.13;3.00;;;;;;;6.07;100.00;102671.88;2603756;47;20090;31
2022/03/06 14:54:57;;;;;;;5.78;2.90;;;;;;;5.89;100.00;102680.56;2603656;54;20582;31
2022/03/06 14:57:34;;;;;;;7.10;3.15;;;;;;;5.81;100.00;102688.91;2702352;39;20478;31
2022/03/06 15:00:11;;;;;;;4.78;2.72;;;;;;;5.73;100.00;102685.69;2604175;46;21398;31
2022/03/06 15:02:53;;;;;;;6.30;2.90;;;;;;;5.82;100.00;102679.97;2604490;47;21069;31
2022/03/06 15:10:42;;;;;;;7.32;3.72;;;;;;;5.95;100.00;102677.69;2702568;39;20881;31
2022/03/06 15:18:30;;;;;;;4.93;3.00;;;;;;;5.69;100.00;102668.00;2773617;31;20477;31
2022/03/06 15:21:06;;;;;;;4.93;3.08;;;;;;;5.61;100.00;102671.84;2604175;46;20026;31
2022/03/06 15:28:56;;;;;;;5.00;3.10;;;;;;;5.61;100.00;102676.34;2701877;39;20333;31
2022/03/06 15:31:38;;;;;;;6.72;3.40;;;;;;;5.57;100.00;102672.03;2702638;39;20562;31
2022/03/06 15:34:17;;;;;;;4.20;3.22;;;;;;;5.61;100.00;102666.50;2702534;39;20566;31
2022/03/06 15:42:06;;;;;;;8.30;3.30;;;;;;;5.60;100.00;102678.13;2603392;54;21762;31
2022/03/06 15:47:16;;;;;;;5.00;3.43;;;;;;;5.72;100.00;102668.75;2702748;39;21142;31
2022/03/06 15:49:58;;;;;;;5.80;3.25;;;;;;;5.65;100.00;102682.41;2603651;47;20034;31
2022/03/06 15:57:49;;;;;;;5.20;3.30;;;;;;;5.50;100.00;102679.41;2603293;54;20030;31
2022/03/06 16:05:36;;;;;;;7.60;3.30;;;;;;;5.54;100.00;102665.00;2702102;39;21028;31
2022/03/06 16:10:45;;;;;;;6.47;3.67;;;;;;;5.36;100.00;102679.03;2603621;54;21375;31
2022/03/06 16:13:22;;;;;;;5.70;3.70;;;;;;;5.16;100.00;102679.78;2604090;47;21120;31
2022/03/06 16:21:14;;;;;;;5.50;3.75;;;;;;;5.13;100.00;102674.56;2701471;39;21667;31
2022/03/06 16:26:24;;;;;;;9.30;3.80;;;;;;;5.21;100.00;102676.03;2603478;54;20065;31
2022/03/06 16:31:34;;;;;;;5.57;3.60;;;;;;;5.15;100.00;102672.72;2603278;54;20260;31
2022/03/06 16:36:46;;;;;;;7.00;4.20;;;;;;;5.09;100.00;102663.13;2702055;39;21032;31
2022/03/06 16:42:00;;;;;;;7.03;4.30;;;;;;;5.06;100.00;102666.78;2603662;54;20368;31
2022/03/06 16:44:37;;;;;;;5.63;3.90;;;;;;;5.15;100.00;102660.22;2603945;47;20399;31
2022/03/06 16:52:28;;;;;;;5.95;3.70;;;;;;;4.90;100.00;102666.47;2701481;39;20554;31
2022/03/06 16:57:38;;;;;;;5.88;3.70;;;;;;;4.68;100.00;102668.13;2603243;54;20553;31
2022/03/06 17:02:48;;;;;;;6.85;3.63;;;;;;;4.60;100.00;102680.88;2603143;54;20611;31
2022/03/06 17:07:59;;;;;;;11.70;6.05;;;;;;;4.59;100.00;102673.78;2603458;54;21393;31
2022/03/06 17:13:09;;;;;;;9.50;4.07;;;;;;;4.50;100.00;102681.16;2603342;54;19982;31
2022/03/06 17:15:46;;;;;;;6.57;4.13;;;;;;;4.55;100.00;102673.03;2603314;47;20450;31
2022/03/06 17:18:21;;;;;;;6.20;3.90;;;;;;;4.44;100.00;102672.53;2603458;47;21399;31
2022/03/06 17:23:33;;;;;;;5.57;3.63;;;;;;;4.38;100.00;102684.25;2603005;54;20339;31
2022/03/06 17:26:10;;;;;;;8.55;4.10;;;;;;;4.39;100.00;102683.34;2603720;47;20023;31
2022/03/06 17:33:59;;;;;;;;;;;;;;;4.25;100.00;102704.25;2603010;54;20034;31
2022/03/06 17:36:37;;;;;;;7.10;3.72;;;;;;;4.18;100.00;102696.44;2603477;47;19931;31
2022/03/06 17:39:18;;;;;;;7.22;3.97;;;;;;;4.13;100.00;102693.03;2603273;47;20057;31
2022/03/06 17:41:55;;;;;;;6.93;3.87;;;;;;;4.00;100.00;102697.03;2603582;47;20031;31
2022/03/06 17:52:19;;;;;;;7.20;3.45;;;;;;;3.81;100.00;102710.94;2763997;31;20501;31
2022/03/06 17:54:57;;;;;;;5.53;4.10;;;;;;;3.68;100.00;102717.53;2603537;47;20400;31
2022/03/06 18:02:48;;;;;;;6.65;4.00;;;;;;;3.54;100.00;102714.41;2603085;54;20312;31
2022/03/06 18:05:25;;;;;;;9.23;4.45;;;;;;;3.43;100.00;102712.03;2702084;39;20442;31
2022/03/06 18:13:14;;;;;;;;;;;;;;;3.34;100.00;102718.50;2701667;39;20295;31
2022/03/06 18:15:55;;;;;;;10.05;5.05;;;;;;;3.31;100.00;102726.56;2702128;39;20251;31
2022/03/06 18:28:52;;;;;;;8.47;4.83;;;;;;;3.20;100.00;102731.34;2701884;39;20584;31
2022/03/06 18:31:41;;;;;;;9.30;5.30;;;;;;;3.25;100.00;102730.28;2604398;47;20504;31
2022/03/06 18:39:31;;;;;;;8.70;4.85;;;;;;;3.19;100.00;102735.78;2603347;54;20073;31
2022/03/06 18:42:07;;;;;;;10.55;5.75;;;;;;;3.23;100.00;102733.91;2604455;47;20026;31
2022/03/06 18:49:58;;;;;;;12.93;6.93;;;;;;;3.02;100.00;102735.34;2603499;54;20559;31
2022/03/06 18:55:07;;;;;;;15.18;7.35;;;;;;;2.92;100.00;102742.72;2603123;54;21268;31
2022/03/06 18:57:44;;;;;;;8.90;5.93;;;;;;;2.95;100.00;102743.50;2603189;54;20026;31
2022/03/06 19:00:20;;;;;;;14.00;5.75;;;;;;;2.85;100.00;102742.00;2603181;47;20408;31
2022/03/06 19:02:59;;;;;;;7.60;4.97;;;;;;;2.93;100.00;102749.75;2615130;39;20874;31
2022/03/06 19:10:51;;;;;;;12.02;6.07;;;;;;;2.89;100.00;102738.34;2602525;54;20560;31
2022/03/06 19:16:00;;;;;;;9.00;5.77;;;;;;;2.84;100.00;102734.91;2613765;31;20411;31
2022/03/06 19:18:36;;;;;;;9.63;5.45;;;;;;;2.79;100.00;102740.34;2621452;36;20262;31
2022/03/06 19:21:13;;;;;;;9.45;5.75;;;;;;;2.89;100.00;102742.81;2609882;39;20279;31
2022/03/06 19:29:10;;;;;;;8.95;5.25;;;;;;;2.89;100.00;102745.47;2602593;54;21317;31
2022/03/06 19:31:52;;;;;;;10.52;5.00;;;;;;;2.88;100.00;102751.69;2613778;31;20382;31
2022/03/06 19:39:41;;;;;;;14.10;6.20;;;;;;;2.61;100.00;102756.78;2602640;54;20046;31
2022/03/06 19:42:17;;;;;;;9.70;5.80;;;;;;;2.64;100.00;102754.06;2603574;47;21171;31
2022/03/06 19:50:10;;;;;;;10.15;5.95;;;;;;;2.55;100.00;102764.94;2602577;54;20359;31
2022/03/06 19:55:25;;;;;;;12.95;7.65;;;;;;;2.50;100.00;102764.16;2602815;54;20544;31
2022/03/06 19:58:00;;;;;;;16.08;8.73;;;;;;;2.43;100.00;102761.63;2614406;39;20938;31
2022/03/06 20:00:37;;;;;;;17.13;9.88;;;;;;;2.43;100.00;102769.63;2621940;36;20042;31
2022/03/06 20:08:28;;;;;;;15.80;9.48;;;;;;;2.57;100.00;102768.41;2602544;54;21380;31
2022/03/06 20:16:12;;;;;;;12.88;7.70;;;;;;;2.31;100.00;102761.91;2602791;54;20054;31
2022/03/06 20:18:49;;;;;;;12.55;7.93;;;;;;;2.19;100.00;102767.50;2603436;47;20431;31
2022/03/06 20:26:46;;;;;;;11.18;7.70;;;;;;;1.88;100.00;102773.50;2602898;54;21427;31
2022/03/06 20:31:55;;;;;;;14.38;8.23;;;;;;;1.78;100.00;102783.44;2603901;54;20057;31
2022/03/06 20:34:32;;;;;;;11.07;7.50;;;;;;;1.73;100.00;102786.19;2603364;54;20034;31
2022/03/06 20:39:42;;;;;;;12.50;7.38;;;;;;;1.64;100.00;102780.22;2701917;39;20445;31
2022/03/06 20:44:55;;;;;;;11.30;7.23;;;;;;;1.56;100.00;102778.56;2603071;54;20057;31
2022/03/06 20:50:06;;;;;;;11.30;6.75;;;;;;;1.52;100.00;102781.31;2603427;54;21250;31
2022/03/06 20:52:47;;;;;;;12.93;7.37;;;;;;;1.40;100.00;102787.75;2622404;36;20026;31
2022/03/06 20:55:24;;;;;;;11.00;7.20;;;;;;;1.36;100.00;102786.91;2702396;39;20449;31
2022/03/06 21:05:43;;;;;;;15.27;9.07;;;;;;;0.88;100.00;102786.88;2602880;54;20033;31
2022/03/06 21:10:52;;;;;;;16.87;9.27;;;;;;;0.60;100.00;102791.78;2603181;54;20757;31
2022/03/06 21:16:02;;;;;;;19.13;10.68;;;;;;;0.40;100.00;102794.72;2603271;54;20687;31
2022/03/06 21:21:18;;;;;;;25.48;12.88;;;;;;;0.16;100.00;102794.16;2701617;39;20712;31
2022/03/06 21:26:26;;;;;;;20.40;12.20;;;;;;;0.15;100.00;102797.75;2603487;54;21219;31
2022/03/06 21:29:03;;;;;;;21.52;11.90;;;;;;;0.15;100.00;102797.75;2603988;54;20047;31
2022/03/06 21:36:53;;;;;;;24.55;15.13;;;;;;;0.17;100.00;102810.03;2652485;31;21059;31
2022/03/06 21:42:02;;;;;;;21.57;13.97;;;;;;;0.19;100.00;102794.13;2603071;54;20026;31
2022/03/06 21:47:14;;;;;;;22.70;13.63;;;;;;;0.30;100.00;102801.94;2602509;54;20030;31
2022/03/06 21:52:27;;;;;;;26.17;14.93;;;;;;;0.35;100.00;102810.69;2602880;54;20886;31
2022/03/06 21:57:37;;;;;;;27.30;15.30;;;;;;;0.40;100.00;102819.44;2603662;54;20476;31
2022/03/06 22:00:14;;;;;;;22.27;15.25;;;;;;;0.44;100.00;102817.63;2604180;47;20450;31
2022/03/06 22:10:40;;;;;;;18.05;11.35;;;;;;;0.78;100.00;102815.34;2603142;54;20054;31
2022/03/06 22:13:16;;;;;;;18.88;11.02;;;;;;;0.82;100.00;102818.81;2615157;39;20878;31
2022/03/06 22:15:51;;;;;;;16.33;10.27;;;;;;;0.95;100.00;102809.75;2604423;47;21186;31
2022/03/06 22:23:40;;;;;;;14.98;9.45;;;;;;;1.23;100.00;102811.94;2603048;54;20434;31
2022/03/06 22:28:53;;;;;;;14.70;8.10;;;;;;;1.44;100.00;102812.44;2603366;54;20042;31
2022/03/06 22:34:03;;;;;;;13.20;9.00;;;;;;;1.49;100.00;102810.59;2603348;54;20081;31
2022/03/06 22:41:48;;;;;;;12.07;8.20;;;;;;;1.38;100.00;102809.00;2603502;54;20460;31
2022/03/06 22:47:00;;;;;;;12.93;8.33;;;;;;;1.43;100.00;102797.41;2603357;54;20030;31
2022/03/06 22:54:42;;;;;;;11.82;8.23;;;;;;;1.33;100.00;102805.53;2603652;54;21122;31
2022/03/06 23:02:27;;;;;;;14.95;8.05;;;;;;;1.25;100.00;102809.25;2603574;54;20530;31
2022/03/06 23:07:38;;;;;;;11.75;7.63;;;;;;;1.21;100.00;102805.78;2603481;54;20392;31
2022/03/06 23:10:14;;;;;;;11.43;7.70;;;;;;;1.16;100.00;102812.94;2604171;47;20418;31
2022/03/06 23:20:39;;;;;;;13.10;8.70;;;;;;;0.61;100.00;102801.47;2603074;54;20243;31
2022/03/06 23:28:22;;;;;;;12.10;7.83;;;;;;;0.39;100.00;102800.94;2603969;54;20042;31
2022/03/06 23:30:57;;;;;;;15.70;9.02;;;;;;;0.25;100.00;102806.41;2603926;47;21596;31
2022/03/06 23:33:33;;;;;;;13.50;8.57;;;;;;;0.25;100.00;102803.75;2651794;39;20278;31
2022/03/06 23:43:57;;;;;;;14.83;8.90;;;;;;;-0.16;100.00;102808.72;2603020;54;20026;31
2022/03/06 23:51:40;;;;;;;13.10;8.87;;;;;;;-0.33;100.00;102806.25;2614372;39;20988;31
2022/03/06 23:54:17;;;;;;;12.55;8.30;;;;;;;-0.44;100.00;102802.84;2604061;54;20451;31
